Flight Track Log - Related Links

Times and Time Zones

All times are in EDT time to prevent confusion due to time zone crossing. See the UAL1519 flight status page for this flight to view local times or setup timezone preferences in your user account.


Time Position Orientation Groundspeed Altitude Reporting Facility
EDT Latitude Longitude Course Direction KTS MPH feet Rate Location/Type
Wed 10:00:29 AM 40.7333 -74.1167 123° Southeast 214 246 2,200  Level New York TRACON
Wed 10:01:29 AM 40.8000 -74.1333 349° North 288 331 5,500 3,650 Climbing New York TRACON
Wed 10:02:00 AM 40.3329 -74.1649 161° South  Level FlightAware Approximate
Wed 10:02:29 AM 40.8000 -74.2167 270° West 258 297 9,500  Level New York TRACON
Wed 10:03:00 AM 40.2054 -74.1500 180° South  Level FlightAware Approximate
Wed 10:03:29 AM 40.7333 -74.2333 191° South 276 318 11,000  Level New York TRACON
Wed 10:04:00 AM 40.0833 -74.1403 90° East  Level FlightAware Approximate
Wed 10:04:29 AM 40.6500 -74.2500 189° South 279 321 11,000  Level New York TRACON
Wed 10:05:00 AM 40.0374 -73.9914 123° Southeast  Level FlightAware Approximate
Wed 10:05:29 AM 40.5833 -74.2667 191° South 281 323 11,000  Level New York TRACON
Wed 10:07:10 AM 40.4506 -74.2292 168° South 326 375 13,000 1,350 Climbing New York Center
Wed 10:08:09 AM 40.3664 -74.1897 160° South 326 375 14,600 1,008 Climbing New York Center
Wed 10:09:09 AM 40.2775 -74.1608 166° South 326 375 15,000 202 Climbing New York Center
Wed 10:10:08 AM 40.1897 -74.1672 183° South 320 368 15,000  Level New York Center
Wed 10:11:11 AM 40.1011 -74.1303 162° South 325 374 15,000  Level New York Center
Wed 10:12:10 AM 40.0525 -74.0142 119° Southeast 333 383 15,000 359 Level New York Center
Wed 10:13:08 AM 40.0158 -73.8986 112° Southeast 360 414 15,700 950 Climbing New York Center
Wed 10:14:10 AM 39.9697 -73.7556 113° Southeast 371 427 16,900 1,537 Climbing New York Center
Wed 10:15:09 AM 39.9272 -73.6211 112° Southeast 385 443 18,800 2,200 Climbing New York Center
Wed 10:16:10 AM 39.8806 -73.4814 113° Southeast 404 465 21,300 2,049 Climbing New York Center
Wed 10:17:12 AM 39.8394 -73.3528 113° Southeast 415 478 23,000 1,109 Climbing New York Center
Wed 10:18:09 AM 39.8094 -73.2028 105° East 422 486 23,500 1,487 Climbing New York Center
Wed 10:19:09 AM 39.8128 -73.0356 88° East 436 502 25,900 2,083 Climbing New York Center
Wed 10:20:10 AM 39.8203 -72.8656 87° East 446 513 27,700 1,765 Climbing New York Center
Wed 10:21:08 AM 39.7750 -72.7047 110° East 459 528 29,400 1,664 Climbing New York Center
Wed 10:22:09 AM 39.6853 -72.5808 133° Southeast 445 512 31,000 1,438 Climbing New York Center
Wed 10:23:09 AM 39.5892 -72.4653 137° Southeast 456 525 32,300 3,934 Climbing New York Center
Wed 10:24:11 AM 39.4908 -72.3444 137° Southeast 472 543 39,000 1,750 Climbing New York Center
Wed 10:25:09 AM 39.4006 -72.2350 137° Southeast 488 562 35,800 -915 Descending New York Center
Wed 10:26:09 AM 39.2833 -72.0931 137° Southeast 493 567 37,200 1,450 Climbing New York Center
Wed 10:27:09 AM 39.1867 -71.9786 137° Southeast 487 560 38,700 893 Climbing New York Center
Wed 10:28:10 AM 39.0897 -71.8619 137° Southeast 482 555 39,000 151 Climbing New York Center
Wed 10:29:08 AM 38.9908 -71.7403 136° Southeast 482 555 39,000  Level New York Center
Wed 10:30:09 AM 38.8917 -71.6242 138° Southeast 487 560 39,000  Level New York Center
Wed 10:31:11 AM 38.7925 -71.5003 136° Southeast 492 566 39,000  Level New York Center
Wed 10:32:10 AM 38.6931 -71.3847 138° Southeast 492 566 39,000  Level New York Center
Wed 10:33:11 AM 38.5936 -71.2669 137° Southeast 492 566 39,000  Level New York Center
Wed 10:34:09 AM 38.4939 -71.1494 137° Southeast 487 560 39,000  Level New York Center
Wed 10:35:10 AM 38.3942 -71.0322 137° Southeast 487 560 39,000  Level New York Center
Wed 10:36:08 AM 38.2922 -70.9233 140° Southeast 487 560 39,000  Level New York Center
Wed 10:37:10 AM 38.1944 -70.8017 136° Southeast 487 560 39,000  Level New York Center
Wed 10:38:08 AM 38.0986 -70.6800 135° Southeast 487 560 39,000  Level New York Center
Wed 10:39:10 AM 37.9900 -70.5828 145° Southeast 487 560 39,000  Level New York Center
Wed 10:40:08 AM 37.8772 -70.5039 151° Southeast 477 549 39,000  Level New York Center
Wed 10:41:08 AM 37.7622 -70.4333 154° Southeast 463 533 39,000  Level New York Center
Wed 10:42:05 AM 38.0000 -70.5833 153° Southeast 460 529 39,000  Level New York Oceanic (ODAPS)
Wed 10:43:09 AM 37.5325 -70.2903 153° Southeast 457 526 39,000  Level New York Center
Wed 10:44:08 AM 37.4194 -70.2228 155° Southeast 451 519 39,000  Level New York Center
Wed 10:45:11 AM 37.2983 -70.1689 161° South 451 519 39,000  Level New York Center
Wed 10:57:39 AM 36.1667 -69.4500 168° South 448 516 39,000  Level New York Oceanic (ODAPS)
Wed 10:58:00 AM 35.8725 -69.3739 167° South  Level FlightAware Approximate
Wed 10:59:00 AM 35.7530 -69.3412 168° South  Level FlightAware Approximate
Wed 11:00:00 AM 35.6334 -69.3087 168° South  Level FlightAware Approximate
Wed 11:01:00 AM 35.5139 -69.2763 168° South  Level FlightAware Approximate
Wed 11:02:00 AM 35.3944 -69.2440 168° South  Level FlightAware Approximate
Wed 11:03:00 AM 35.2748 -69.2117 168° South  Level FlightAware Approximate
Wed 11:04:00 AM 35.0677 -69.1569 168° South 448 516 39,000  Level FlightAware Transoceanic
Wed 11:05:00 AM 34.9456 -69.1248 168° South 448 516 39,000  Level FlightAware Transoceanic
Wed 11:06:00 AM 34.8235 -69.0928 168° South 448 516 39,000  Level FlightAware Transoceanic
Wed 11:07:00 AM 34.7013 -69.0609 168° South 448 516 39,000  Level FlightAware Transoceanic
Wed 11:08:00 AM 34.5791 -69.0291 168° South 448 516 39,000  Level FlightAware Transoceanic
Wed 11:09:00 AM 34.4570 -68.9974 168° South 448 516 39,000  Level FlightAware Transoceanic
Wed 11:10:00 AM 34.3348 -68.9658 168° South 448 516 39,000  Level FlightAware Transoceanic
Wed 11:11:00 AM 34.2126 -68.9343 168° South 448 516 39,000  Level FlightAware Transoceanic
Wed 11:12:00 AM 34.0904 -68.9029 168° South 448 516 39,000  Level FlightAware Transoceanic
Wed 11:13:00 AM 33.9682 -68.8716 168° South 448 516 39,000  Level FlightAware Transoceanic
Wed 11:14:00 AM 33.8459 -68.8403 168° South 448 516 39,000  Level FlightAware Transoceanic
Wed 11:15:00 AM 33.7237 -68.8092 168° South 448 516 39,000  Level FlightAware Transoceanic
Wed 11:16:00 AM 33.6015 -68.7781 168° South 448 516 39,000  Level FlightAware Transoceanic
Wed 11:17:00 AM 33.4792 -68.7471 168° South 448 516 39,000  Level FlightAware Transoceanic
Wed 11:18:00 AM 33.3570 -68.7162 168° South 448 516 39,000  Level FlightAware Transoceanic
Wed 11:19:00 AM 33.2347 -68.6854 168° South 448 516 39,000  Level FlightAware Transoceanic
Wed 11:20:00 AM 33.1125 -68.6547 168° South 448 516 39,000  Level FlightAware Transoceanic
Wed 11:21:00 AM 32.9902 -68.6241 168° South 448 516 39,000  Level FlightAware Transoceanic
Wed 11:22:00 AM 32.8679 -68.5935 168° South 448 516 39,000  Level FlightAware Transoceanic
Wed 11:23:00 AM 32.7456 -68.5631 168° South 448 516 39,000  Level FlightAware Transoceanic
Wed 11:24:00 AM 32.6233 -68.5327 168° South 448 516 39,000  Level FlightAware Transoceanic
Wed 11:25:00 AM 32.5010 -68.5024 168° South 448 516 39,000  Level FlightAware Transoceanic
Wed 11:26:00 AM 32.3787 -68.4722 168° South 448 516 39,000  Level FlightAware Transoceanic
Wed 11:27:00 AM 32.2564 -68.4420 168° South 448 516 39,000  Level FlightAware Transoceanic
Wed 11:28:00 AM 32.1341 -68.4120 168° South 448 516 39,000  Level FlightAware Transoceanic
Wed 11:29:00 AM 32.0117 -68.3820 168° South 448 516 39,000  Level FlightAware Transoceanic
Wed 11:30:00 AM 31.8894 -68.3521 168° South 448 516 39,000  Level FlightAware Transoceanic
Wed 11:31:00 AM 31.7671 -68.3223 168° South 448 516 39,000  Level FlightAware Transoceanic
Wed 11:32:00 AM 31.6447 -68.2926 168° South 448 516 39,000  Level FlightAware Transoceanic
Wed 11:33:00 AM 31.5224 -68.2629 168° South 448 516 39,000  Level FlightAware Transoceanic
Wed 11:34:00 AM 31.4000 -68.2333 169° South 448 516 39,000  Level FlightAware Transoceanic
Wed 11:35:00 AM 31.2768 -68.2040 169° South 448 516 39,000  Level FlightAware Transoceanic
Wed 11:36:00 AM 31.1535 -68.1748 169° South 448 516 39,000  Level FlightAware Transoceanic
Wed 11:37:00 AM 31.0303 -68.1457 169° South 448 516 39,000  Level FlightAware Transoceanic
Wed 11:38:00 AM 30.9070 -68.1166 169° South 448 516 39,000  Level FlightAware Transoceanic
Wed 11:39:00 AM 30.7838 -68.0876 169° South 448 516 39,000  Level FlightAware Transoceanic
Wed 11:40:00 AM 30.6605 -68.0587 169° South 448 516 39,000  Level FlightAware Transoceanic
Wed 11:41:00 AM 30.5373 -68.0298 169° South 448 516 39,000  Level FlightAware Transoceanic
Wed 11:42:00 AM 30.4140 -68.0011 169° South 448 516 39,000  Level FlightAware Transoceanic
Wed 11:43:00 AM 30.2907 -67.9724 169° South 448 516 39,000  Level FlightAware Transoceanic
Wed 11:44:00 AM 30.1674 -67.9437 169° South 448 516 39,000  Level FlightAware Transoceanic
Wed 11:45:00 AM 30.0441 -67.9152 169° South 448 516 39,000  Level FlightAware Transoceanic
Wed 11:46:00 AM 29.9208 -67.8867 169° South 448 516 39,000  Level FlightAware Transoceanic
Wed 11:47:00 AM 29.7975 -67.8583 169° South 448 516 39,000  Level FlightAware Transoceanic
Wed 11:48:00 AM 29.6742 -67.8299 169° South 448 516 39,000  Level FlightAware Transoceanic
Wed 11:49:00 AM 29.5509 -67.8017 169° South 448 516 39,000  Level FlightAware Transoceanic
Wed 11:50:00 AM 29.4276 -67.7735 169° South 448 516 39,000  Level FlightAware Transoceanic
Wed 11:51:00 AM 29.3042 -67.7453 169° South 448 516 39,000  Level FlightAware Transoceanic
Wed 11:52:00 AM 29.1809 -67.7173 169° South 448 516 39,000  Level FlightAware Transoceanic
Wed 11:53:00 AM 29.0576 -67.6893 169° South 448 516 39,000  Level FlightAware Transoceanic
Wed 11:54:00 AM 28.9342 -67.6613 169° South 448 516 39,000  Level FlightAware Transoceanic
Wed 11:55:00 AM 28.8109 -67.6335 169° South 448 516 39,000  Level FlightAware Transoceanic
Wed 11:56:00 AM 28.6875 -67.6057 169° South 448 516 39,000  Level FlightAware Transoceanic
Wed 11:57:00 AM 28.5641 -67.5779 169° South 448 516 39,000  Level FlightAware Transoceanic
Wed 11:58:00 AM 28.4408 -67.5502 169° South 448 516 39,000  Level FlightAware Transoceanic
Wed 11:59:00 AM 28.3174 -67.5226 169° South 448 516 39,000  Level FlightAware Transoceanic
Wed 12:00:00 PM 28.1940 -67.4951 169° South 448 516 39,000  Level FlightAware Transoceanic
Wed 12:01:00 PM 28.0706 -67.4676 169° South 448 516 39,000  Level FlightAware Transoceanic
Wed 12:02:00 PM 27.9472 -67.4402 169° South 448 516 39,000  Level FlightAware Transoceanic
Wed 12:03:00 PM 27.8238 -67.4128 169° South 448 516 39,000  Level FlightAware Transoceanic
Wed 12:04:00 PM 27.7004 -67.3856 169° South 448 516 39,000  Level FlightAware Transoceanic
Wed 12:05:00 PM 27.5770 -67.3583 169° South 448 516 39,000  Level FlightAware Transoceanic
Wed 12:06:00 PM 27.4536 -67.3311 169° South 448 516 39,000  Level FlightAware Transoceanic
Wed 12:07:00 PM 27.3302 -67.3040 169° South 448 516 39,000  Level FlightAware Transoceanic
Wed 12:08:00 PM 27.2068 -67.2770 169° South 448 516 39,000 1,429 Level FlightAware Transoceanic
Wed 12:08:24 PM 27.0833 -67.2500 158° South 491 565 41,000 55 Climbing New York Oceanic (ODAPS)
Wed 12:44:15 PM 22.4000 -65.2833 166° South 480 552 41,000  Level San Juan Center
Wed 12:45:00 PM 22.2281 -65.1856 159° South 491 565 41,000  Level FlightAware Transoceanic
Wed 12:45:15 PM 22.2833 -65.2333 158° South 480 552 41,000  Level San Juan Center
Wed 12:46:00 PM 22.1000 -65.1333 166° South 491 565 41,000  Level FlightAware Transoceanic
Wed 12:46:16 PM 22.1500 -65.1833 161° South 470 541 41,000  Level San Juan Center
Wed 12:47:00 PM 21.9771 -65.0998 166° South 491 565 41,000  Level FlightAware Transoceanic
Wed 12:47:16 PM 22.0333 -65.1167 152° Southeast 530 610 41,000  Level San Juan Center
Wed 12:48:00 PM 21.8542 -65.0663 166° South 491 565 41,000  Level FlightAware Transoceanic
Wed 12:48:17 PM 21.9000 -65.1000 173° South 470 541 41,000  Level San Juan Center
Wed 12:49:00 PM 21.7313 -65.0329 166° South 491 565 41,000  Level FlightAware Transoceanic
Wed 12:49:17 PM 21.8000 -65.0833 171° South 490 564 41,000 -78 Level San Juan Center
Wed 12:50:17 PM 21.6500 -65.0833 180° South 470 541 40,900  Descending San Juan Center
Wed 12:51:18 PM 21.5333 -65.0833 180° South 440 506 41,000 50 Climbing San Juan Center
Wed 12:52:18 PM 21.4000 -65.1000 187° South 440 506 41,000  Level San Juan Center
Wed 12:53:19 PM 21.2833 -65.1000 180° South 410 472 41,000  Level San Juan Center
Wed 12:54:19 PM 21.1667 -65.1000 180° South 440 506 41,000  Level San Juan Center
Wed 12:55:19 PM 21.0333 -65.1000 180° South 480 552 41,000  Level San Juan Center
Wed 12:56:20 PM 20.9167 -65.1167 188° South 410 472 41,000  Level San Juan Center
Wed 12:57:20 PM 20.8000 -65.1000 172° South 450 518 41,000  Level San Juan Center
Wed 12:58:20 PM 20.6667 -65.1167 187° South 440 506 41,000  Level San Juan Center
Wed 12:59:21 PM 20.5500 -65.1167 180° South 440 506 41,000 -545 Level San Juan Center
Wed 01:00:21 PM 20.4333 -65.1167 180° South 440 506 39,900 -1,785 Descending San Juan Center
Wed 01:01:22 PM 20.3000 -65.1167 180° South 430 495 37,400 -2,628 Descending San Juan Center
Wed 01:02:22 PM 20.1833 -65.1167 180° South 460 529 34,600 -3,000 Descending San Juan Center
Wed 01:03:22 PM 20.0167 -65.1333 185° South 480 552 31,400 -2,926 Descending San Juan Center
Wed 01:04:23 PM 19.8833 -65.1333 180° South 460 529 28,700 -2,529 Descending San Juan Center
Wed 01:05:23 PM 19.7667 -65.1333 180° South 450 518 26,300 -2,331 Descending San Juan Center
Wed 01:06:24 PM 19.6333 -65.1333 180° South 440 506 24,000 -2,281 Descending San Juan Center
Wed 01:07:24 PM 19.5167 -65.1333 180° South 430 495 21,700 -2,350 Descending San Juan Center
Wed 01:08:24 PM 19.4000 -65.1500 188° South 420 483 19,300 -2,231 Descending San Juan Center
Wed 01:09:25 PM 19.2833 -65.1500 180° South 400 460 17,200 -2,083 Descending San Juan Center
Wed 01:10:25 PM 19.1833 -65.1500 180° South 390 449 15,100 -2,250 Descending San Juan Center
Wed 01:11:25 PM 19.0833 -65.1500 180° South 370 426 12,700 -1,983 Descending San Juan Center
Wed 01:12:26 PM 18.9833 -65.1500 180° South 350 403 11,100 -1,091 Descending San Juan Center
Wed 01:13:26 PM 18.8833 -65.1500 180° South 310 357 10,500 -900 Descending San Juan Center
Wed 01:14:26 PM 18.8000 -65.1667 191° South 290 334 9,300 -1,240 Descending San Juan Center
Wed 01:15:27 PM 18.7333 -65.1667 180° South 280 322 8,000 -1,140 Descending San Juan Center
Wed 01:16:27 PM 18.6500 -65.1667 180° South 280 322 7,000 -1,041 Descending San Juan Center
Wed 01:17:28 PM 18.5833 -65.1667 180° South 260 299 5,900 -1,041 Descending San Juan Center
Wed 01:18:28 PM 18.5167 -65.1667 180° South 240 276 4,900 -1,400 Descending San Juan Center
Wed 01:19:28 PM 18.4500 -65.1500 167° South 230 265 3,100 -1,350 Descending San Juan Center
Wed 01:20:28 PM 18.3833 -65.1333 167° South 230 265 2,200 -397 Descending San Juan Center
Wed 01:21:29 PM 18.3333 -65.1167 162° South 190 219 2,300 -198 Climbing San Juan Center
Wed 01:22:29 PM 18.3333 -65.0667 90° East 180 207 1,800 -545 Descending San Juan Center
Wed 01:23:30 PM 18.3167 -65.0333 118° Southeast 130 150 1,200 -645 Descending San Juan Center
Wed 01:24:30 PM 18.3333 -64.9833 71° East 140 161 500 -700 Descending San Juan Center

Login

Don't have an account? Register now (free) for customized features, flight alerts, and more!